Time;durP1;ratioP1;P1;durP2;ratioP2;P2;SDS_P1;SDS_P2;PMS_P1;PMS_P2;Temp;Humidity;BMP_temperature;BMP_pressure;BME280_temperature;BME280_humidity;BME280_pressure;Samples;Min_cycle;Max_cycle;Signal;HPM_P1;HPM_P2
2021/03/14 00:00:52;;;;;;;5.97;1.60;;;5.60;85.90;;;;;;2069775;28;20591;-80
2021/03/14 00:01:52;;;;;;;5.20;1.10;;;5.60;85.80;;;;;;2072546;28;20558;-81
2021/03/14 00:02:53;;;;;;;4.88;0.93;;;5.60;85.90;;;;;;2072275;28;20112;-81
2021/03/14 00:03:54;;;;;;;4.68;0.73;;;5.50;85.80;;;;;;2064086;28;20121;-80
2021/03/14 00:04:54;;;;;;;5.03;0.90;;;5.60;85.90;;;;;;2064088;28;20027;-79
2021/03/14 00:05:56;;;;;;;4.55;0.95;;;5.50;85.90;;;;;;2072238;28;20041;-81
2021/03/14 00:06:56;;;;;;;3.17;0.80;;;5.50;85.90;;;;;;2081062;28;20025;-80
2021/03/14 00:07:58;;;;;;;5.60;1.00;;;5.50;85.90;;;;;;2071206;28;20073;-80
2021/03/14 00:08:58;;;;;;;2.70;0.57;;;5.50;85.90;;;;;;2065229;28;20033;-80
2021/03/14 00:09:59;;;;;;;3.25;0.73;;;5.50;86.00;;;;;;2069126;28;20034;-80
2021/03/14 00:11:03;;;;;;;3.42;0.82;;;5.50;86.00;;;;;;2071926;28;20030;-81
2021/03/14 00:12:08;;;;;;;3.78;1.08;;;5.50;86.00;;;;;;2056875;28;20062;-80
2021/03/14 00:13:09;;;;;;;3.88;0.77;;;5.50;86.00;;;;;;2064686;28;20076;-80
2021/03/14 00:14:10;;;;;;;1.58;0.57;;;5.50;86.00;;;;;;2072985;28;20026;-80
2021/03/14 00:15:11;;;;;;;3.30;0.68;;;5.50;86.00;;;;;;2072413;28;20061;-80
2021/03/14 00:16:12;;;;;;;3.25;0.80;;;5.50;86.00;;;;;;2064864;28;20030;-80
2021/03/14 00:17:13;;;;;;;4.68;0.95;;;5.50;86.00;;;;;;2056855;28;20069;-80
2021/03/14 00:18:15;;;;;;;5.82;0.80;;;5.50;86.00;;;;;;2072233;28;20068;-80
2021/03/14 00:19:16;;;;;;;3.65;0.55;;;5.50;86.00;;;;;;2066009;28;20033;-80
2021/03/14 00:20:17;;;;;;;6.13;1.30;;;5.50;86.00;;;;;;2064263;28;20026;-80
2021/03/14 00:21:19;;;;;;;4.10;1.05;;;5.50;86.00;;;;;;2061424;28;20065;-80
2021/03/14 00:22:20;;;;;;;2.88;0.90;;;5.50;86.00;;;;;;2062167;28;20038;-80
2021/03/14 00:23:21;;;;;;;5.13;0.90;;;5.50;86.00;;;;;;2064848;28;20460;-80
2021/03/14 00:24:21;;;;;;;2.95;0.90;;;5.50;86.00;;;;;;2074637;28;20408;-80
2021/03/14 00:25:22;;;;;;;3.67;0.70;;;5.50;86.00;;;;;;2073222;28;20038;-79
2021/03/14 00:26:22;;;;;;;4.55;1.02;;;5.50;86.00;;;;;;2070570;28;20034;-80
2021/03/14 00:27:23;;;;;;;5.28;0.80;;;5.50;86.00;;;;;;2055416;28;20171;-80
2021/03/14 00:28:24;;;;;;;5.38;0.90;;;5.50;85.90;;;;;;2056659;28;20042;-80
2021/03/14 00:29:26;;;;;;;3.75;0.90;;;5.50;85.90;;;;;;2062398;28;20120;-80
2021/03/14 00:30:27;;;;;;;5.63;1.23;;;5.50;85.80;;;;;;2066003;28;20034;-80
2021/03/14 00:31:28;;;;;;;5.57;1.02;;;5.50;85.80;;;;;;2079948;28;20400;-81
2021/03/14 00:32:28;;;;;;;7.63;1.30;;;5.50;85.80;;;;;;2079174;28;20658;-80
2021/03/14 00:33:29;;;;;;;6.05;0.90;;;5.50;85.70;;;;;;2079544;28;20156;-80
2021/03/14 00:34:30;;;;;;;5.07;1.02;;;5.60;85.80;;;;;;2072884;28;20073;-81
2021/03/14 00:35:31;;;;;;;4.97;1.13;;;5.60;85.80;;;;;;2072883;28;20558;-81
2021/03/14 00:36:32;;;;;;;6.50;0.90;;;5.60;85.70;;;;;;2071907;28;20062;-80
2021/03/14 00:37:32;;;;;;;4.35;0.95;;;5.60;85.70;;;;;;2055397;28;20050;-80
2021/03/14 00:38:33;;;;;;;6.05;1.00;;;5.60;85.70;;;;;;2054323;28;20054;-80
2021/03/14 00:39:34;;;;;;;5.00;0.85;;;5.60;85.70;;;;;;2072995;28;20124;-80
2021/03/14 00:40:34;;;;;;;3.70;1.20;;;5.60;86.30;;;;;;2071332;28;20404;-80
2021/03/14 00:41:35;;;;;;;3.42;0.82;;;5.60;85.60;;;;;;2072328;28;20083;-80
2021/03/14 00:42:37;;;;;;;5.25;0.77;;;5.60;85.60;;;;;;2080062;28;20030;-80
2021/03/14 00:43:38;;;;;;;6.50;0.95;;;5.60;85.60;;;;;;2079411;28;20510;-80
2021/03/14 00:44:38;;;;;;;5.35;0.80;;;5.60;85.60;;;;;;2071697;28;20032;-80
2021/03/14 00:45:40;;;;;;;6.93;1.00;;;5.60;85.60;;;;;;2069903;28;20038;-80
2021/03/14 00:46:40;;;;;;;5.60;0.88;;;5.60;85.60;;;;;;2069792;28;20559;-80
2021/03/14 00:47:41;;;;;;;4.75;0.90;;;5.60;85.60;;;;;;2069374;28;20122;-80
2021/03/14 00:48:42;;;;;;;3.92;0.77;;;5.60;85.60;;;;;;2065234;28;20411;-81
2021/03/14 00:49:42;;;;;;;6.05;0.85;;;5.60;85.60;;;;;;2068620;28;20541;-80
2021/03/14 00:50:43;;;;;;;4.18;0.77;;;5.60;85.60;;;;;;2072401;28;20037;-80
2021/03/14 00:51:44;;;;;;;6.10;0.85;;;5.60;85.60;;;;;;2081436;28;20033;-80
2021/03/14 00:52:45;;;;;;;4.80;0.70;;;5.60;85.60;;;;;;2080055;28;20053;-80
2021/03/14 00:53:46;;;;;;;4.55;1.00;;;5.60;85.50;;;;;;2072538;28;20037;-80
2021/03/14 00:54:46;;;;;;;4.78;1.10;;;5.60;85.50;;;;;;2070178;28;20325;-80
2021/03/14 00:55:47;;;;;;;4.32;0.90;;;5.60;85.50;;;;;;2079417;28;20029;-80
2021/03/14 00:56:48;;;;;;;4.28;0.80;;;5.60;85.40;;;;;;2071801;28;20033;-80
2021/03/14 00:57:48;;;;;;;4.53;0.98;;;5.70;85.40;;;;;;2069031;28;20029;-80
2021/03/14 00:58:49;;;;;;;3.30;0.80;;;5.70;85.40;;;;;;2071028;28;20431;-79
2021/03/14 00:59:49;;;;;;;4.47;1.00;;;5.70;85.40;;;;;;2049320;28;20114;-80
2021/03/14 01:00:50;;;;;;;4.28;0.70;;;5.70;85.30;;;;;;2046496;28;20060;-80
2021/03/14 01:01:51;;;;;;;6.00;0.98;;;5.70;85.30;;;;;;2079406;28;20029;-80
2021/03/14 01:02:52;;;;;;;6.75;1.50;;;5.70;85.30;;;;;;2065020;28;20054;-80
2021/03/14 01:03:52;;;;;;;3.30;0.80;;;5.70;85.30;;;;;;2064973;28;20065;-81
2021/03/14 01:04:54;;;;;;;3.85;0.80;;;5.70;85.30;;;;;;2079001;28;20103;-82
2021/03/14 01:05:55;;;;;;;4.53;0.70;;;5.70;85.30;;;;;;2069360;28;20038;-81
2021/03/14 01:06:55;;;;;;;5.50;1.10;;;5.70;85.20;;;;;;2049360;28;20082;-81
2021/03/14 01:07:56;;;;;;;6.13;1.00;;;5.70;85.20;;;;;;2072053;28;20538;-80
2021/03/14 01:08:56;;;;;;;3.40;0.90;;;5.70;85.20;;;;;;2064268;28;20026;-81
2021/03/14 01:09:57;;;;;;;3.55;1.00;;;5.80;85.20;;;;;;2072056;28;20392;-81
2021/03/14 01:10:58;;;;;;;6.03;1.08;;;5.70;85.10;;;;;;2070472;28;20503;-81
2021/03/14 01:11:59;;;;;;;1.67;0.60;;;5.70;85.10;;;;;;2070371;28;20036;-80
2021/03/14 01:12:59;;;;;;;3.72;0.90;;;5.80;85.10;;;;;;2065936;28;20030;-81
2021/03/14 01:14:00;;;;;;;4.45;0.98;;;5.80;85.10;;;;;;2072525;28;20118;-81
2021/03/14 01:15:00;;;;;;;3.70;0.70;;;5.80;85.10;;;;;;2063522;28;20480;-81
2021/03/14 01:16:01;;;;;;;5.82;1.17;;;5.80;85.10;;;;;;2062447;28;20038;-81
2021/03/14 01:17:02;;;;;;;6.97;1.00;;;5.80;85.10;;;;;;2079230;28;20026;-80
2021/03/14 01:18:04;;;;;;;3.75;0.70;;;5.80;85.10;;;;;;2079288;28;20056;-81
2021/03/14 01:19:05;;;;;;;7.22;1.05;;;5.80;85.10;;;;;;2080694;28;20025;-81
2021/03/14 01:20:08;;;;;;;6.50;1.25;;;5.80;85.10;;;;;;2067382;28;20365;-80
2021/03/14 01:21:09;;;;;;;4.90;1.15;;;5.80;85.00;;;;;;2064848;28;20389;-80
2021/03/14 01:22:10;;;;;;;4.90;1.00;;;5.80;85.00;;;;;;2063467;28;20022;-81
2021/03/14 01:23:10;;;;;;;4.13;0.70;;;5.80;85.00;;;;;;2064906;28;20134;-81
2021/03/14 01:24:11;;;;;;;4.70;0.98;;;5.80;85.00;;;;;;2064618;28;20037;-81
2021/03/14 01:25:12;;;;;;;4.13;0.90;;;5.80;84.90;;;;;;2069920;28;20116;-81
2021/03/14 01:26:13;;;;;;;4.85;0.90;;;5.80;84.90;;;;;;2069231;28;20397;-80
2021/03/14 01:27:14;;;;;;;2.97;0.70;;;5.80;84.90;;;;;;2055350;28;20030;-80
2021/03/14 01:28:14;;;;;;;4.45;1.00;;;5.80;84.90;;;;;;2047091;28;20035;-80
2021/03/14 01:29:15;;;;;;;7.95;1.35;;;5.80;84.80;;;;;;2056376;28;20033;-81
2021/03/14 01:30:20;;;;;;;7.13;0.90;;;5.80;84.80;;;;;;2062013;28;20123;-80
2021/03/14 01:31:21;;;;;;;6.88;1.00;;;5.90;84.90;;;;;;2076449;28;20486;-80
2021/03/14 01:32:22;;;;;;;6.35;1.20;;;5.90;84.80;;;;;;2063816;28;20034;-81
2021/03/14 01:33:22;;;;;;;5.05;0.95;;;5.90;84.80;;;;;;2053562;28;20098;-80
2021/03/14 01:34:23;;;;;;;8.55;1.15;;;5.90;84.80;;;;;;2058951;28;20026;-81
2021/03/14 01:35:23;;;;;;;5.78;1.20;;;5.90;84.70;;;;;;2063448;28;20133;-80
2021/03/14 01:36:24;;;;;;;6.00;0.95;;;5.90;84.70;;;;;;2070445;28;20531;-81
2021/03/14 01:37:25;;;;;;;5.22;0.90;;;5.90;84.70;;;;;;2081167;28;20029;-81
2021/03/14 01:38:25;;;;;;;3.80;0.90;;;5.90;84.70;;;;;;2072274;28;20060;-81
2021/03/14 01:39:26;;;;;;;6.30;0.85;;;5.90;84.70;;;;;;2063565;28;20083;-81
2021/03/14 01:40:27;;;;;;;4.65;1.02;;;5.90;84.70;;;;;;2055277;28;20081;-81
2021/03/14 01:41:27;;;;;;;5.90;0.93;;;5.90;84.80;;;;;;2063264;28;20041;-82
2021/03/14 01:42:29;;;;;;;3.53;0.95;;;5.90;84.80;;;;;;2072005;28;20464;-81
2021/03/14 01:43:35;;;;;;;5.78;0.82;;;5.90;84.80;;;;;;2072383;28;20377;-81
2021/03/14 01:44:35;;;;;;;2.78;0.77;;;5.90;84.80;;;;;;2071979;28;20123;-81
2021/03/14 01:45:36;;;;;;;4.05;0.80;;;5.90;84.80;;;;;;2053299;28;20034;-81
2021/03/14 01:46:37;;;;;;;3.55;0.85;;;5.90;84.80;;;;;;2062904;28;20038;-81
2021/03/14 01:47:41;;;;;;;3.13;0.90;;;5.90;84.80;;;;;;2079730;28;20028;-80
2021/03/14 01:48:42;;;;;;;5.97;1.05;;;5.90;84.80;;;;;;2078425;28;20025;-81
2021/03/14 01:49:43;;;;;;;5.35;0.88;;;5.90;84.80;;;;;;2069980;28;20468;-81
2021/03/14 01:50:45;;;;;;;3.80;0.80;;;5.80;84.80;;;;;;2068945;28;20034;-81
2021/03/14 01:51:46;;;;;;;5.72;1.30;;;5.80;84.80;;;;;;2080113;28;20026;-81
2021/03/14 01:52:48;;;;;;;4.45;0.77;;;5.90;84.80;;;;;;2080596;28;20411;-80
2021/03/14 01:53:49;;;;;;;4.72;0.80;;;5.90;84.80;;;;;;2072399;28;20030;-81
2021/03/14 01:54:49;;;;;;;3.70;0.98;;;5.90;84.80;;;;;;2061445;28;20069;-81
2021/03/14 01:55:50;;;;;;;4.95;1.00;;;5.90;84.80;;;;;;2074009;28;20017;-81
2021/03/14 01:56:51;;;;;;;4.93;1.08;;;5.90;84.80;;;;;;2079418;28;20511;-81
2021/03/14 01:57:52;;;;;;;4.57;0.90;;;5.90;84.80;;;;;;2073110;28;20036;-81
2021/03/14 01:58:54;;;;;;;7.22;0.90;;;5.90;84.80;;;;;;2076046;28;20448;-81
2021/03/14 01:59:55;;;;;;;3.83;0.90;;;5.90;84.80;;;;;;2075369;28;20599;-81
2021/03/14 02:00:56;;;;;;;3.67;0.85;;;5.90;84.80;;;;;;2060932;28;20076;-81
2021/03/14 02:01:56;;;;;;;6.85;1.13;;;5.90;84.80;;;;;;2063855;28;20048;-81
2021/03/14 02:02:57;;;;;;;4.10;0.80;;;5.90;84.80;;;;;;2068240;28;20030;-81
2021/03/14 02:03:58;;;;;;;3.40;0.70;;;5.90;84.80;;;;;;2067292;28;20018;-81
2021/03/14 02:04:58;;;;;;;3.75;0.80;;;5.90;85.40;;;;;;2056016;28;20035;-81
2021/03/14 02:05:59;;;;;;;5.63;0.80;;;5.90;84.80;;;;;;2058760;28;20039;-80
2021/03/14 02:07:00;;;;;;;4.95;0.70;;;5.90;84.80;;;;;;2068126;28;20113;-81
2021/03/14 02:08:00;;;;;;;4.32;0.80;;;5.90;84.80;;;;;;2071395;28;20038;-81
2021/03/14 02:09:01;;;;;;;5.53;0.80;;;5.90;84.80;;;;;;2071140;28;20100;-80
2021/03/14 02:10:03;;;;;;;6.30;1.13;;;5.90;84.80;;;;;;2071531;28;20172;-81
2021/03/14 02:11:04;;;;;;;4.60;0.73;;;5.90;84.80;;;;;;2080060;28;20455;-81
2021/03/14 02:12:08;;;;;;;4.03;0.90;;;5.90;84.80;;;;;;2072401;28;20030;-81
2021/03/14 02:13:24;;;;;;;3.08;0.70;;;5.90;84.80;;;;;;2079284;28;20476;-81
2021/03/14 02:14:26;;;;;;;4.70;1.05;;;5.90;84.80;;;;;;2070812;28;20026;-81
2021/03/14 02:15:28;;;;;;;4.03;0.88;;;5.90;84.80;;;;;;2071303;28;20033;-81
2021/03/14 02:16:36;;;;;;;6.22;1.02;;;5.90;84.70;;;;;;2070547;28;20036;-81
2021/03/14 02:17:38;;;;;;;5.85;1.00;;;5.90;84.70;;;;;;2068953;28;20030;-80
2021/03/14 02:18:42;;;;;;;3.85;1.00;;;5.90;85.30;;;;;;2079681;28;20084;-81
2021/03/14 02:19:52;;;;;;;3.70;0.80;;;5.90;84.70;;;;;;2086709;28;20025;-80
2021/03/14 02:20:55;;;;;;;3.00;0.75;;;5.90;84.70;;;;;;2083828;28;20511;-81
2021/03/14 02:22:00;;;;;;;4.30;0.68;;;5.90;84.70;;;;;;2079598;28;20419;-80
2021/03/14 02:23:07;;;;;;;3.67;0.90;;;5.90;84.70;;;;;;2075017;28;20420;-81
2021/03/14 02:24:15;;;;;;;5.57;0.93;;;5.90;84.70;;;;;;2076933;28;20026;-81
2021/03/14 02:25:44;;;;;;;4.85;1.05;;;5.90;84.70;;;;;;2080836;28;20080;-81
2021/03/14 02:26:45;;;;;;;3.35;0.63;;;5.90;85.20;;;;;;2064341;28;20069;-81
2021/03/14 02:27:46;;;;;;;3.60;0.75;;;5.90;84.70;;;;;;2071654;28;20041;-80
2021/03/14 02:28:48;;;;;;;3.95;1.02;;;5.90;84.60;;;;;;2066049;28;20037;-80
2021/03/14 02:29:48;;;;;;;5.15;1.08;;;5.90;84.60;;;;;;2062938;28;20030;-80
2021/03/14 02:30:49;;;;;;;2.70;0.77;;;6.00;84.60;;;;;;2060748;28;20635;-80
2021/03/14 02:31:53;;;;;;;2.08;0.70;;;5.90;84.60;;;;;;2070699;28;20088;-81
2021/03/14 02:32:54;;;;;;;1.52;0.57;;;5.90;84.60;;;;;;2061286;28;20380;-81
2021/03/14 02:34:08;;;;;;;3.90;0.88;;;5.90;84.70;;;;;;2072071;28;20038;-81
2021/03/14 02:35:09;;;;;;;2.58;0.70;;;5.90;84.70;;;;;;2062993;28;20023;-80
2021/03/14 02:36:12;;;;;;;2.95;0.80;;;5.90;84.70;;;;;;2068465;28;20495;-80
2021/03/14 02:37:14;;;;;;;5.13;0.80;;;5.90;84.70;;;;;;2075972;28;20494;-81
2021/03/14 02:38:15;;;;;;;3.33;0.70;;;5.90;84.70;;;;;;2071679;28;20477;-81
2021/03/14 02:39:20;;;;;;;3.08;0.75;;;5.90;84.70;;;;;;2064388;28;20397;-81
2021/03/14 02:40:22;;;;;;;2.80;0.90;;;5.90;84.70;;;;;;2070624;28;20119;-80
2021/03/14 02:41:24;;;;;;;5.32;0.95;;;5.90;84.80;;;;;;2065646;28;20090;-81
2021/03/14 02:42:26;;;;;;;4.68;0.90;;;5.90;84.80;;;;;;2065233;28;20034;-81
2021/03/14 02:43:27;;;;;;;6.00;1.02;;;5.90;84.80;;;;;;2081270;28;20479;-81
2021/03/14 02:44:38;;;;;;;3.55;0.70;;;5.90;84.80;;;;;;2073141;28;20124;-81
2021/03/14 02:45:39;;;;;;;4.57;0.88;;;5.90;84.80;;;;;;2071741;28;20034;-82
2021/03/14 02:46:45;;;;;;;4.03;0.90;;;5.90;84.90;;;;;;2078240;28;20095;-81
2021/03/14 02:47:45;;;;;;;4.55;1.10;;;5.80;84.80;;;;;;2064833;28;20038;-81
2021/03/14 02:48:47;;;;;;;4.00;0.90;;;5.90;84.80;;;;;;2057062;28;20537;-81
2021/03/14 02:49:53;;;;;;;5.20;1.00;;;5.90;84.80;;;;;;2067616;28;20507;-81
2021/03/14 02:50:55;;;;;;;4.35;0.80;;;5.80;84.80;;;;;;2079088;28;20040;-81
2021/03/14 02:51:56;;;;;;;4.43;0.75;;;5.80;84.80;;;;;;2081394;28;20047;-81
2021/03/14 02:52:57;;;;;;;2.47;0.70;;;5.90;85.40;;;;;;2081907;28;20040;-81
2021/03/14 02:53:58;;;;;;;3.92;0.88;;;5.80;84.80;;;;;;2081819;28;20021;-81
2021/03/14 02:54:59;;;;;;;3.83;0.88;;;5.80;84.80;;;;;;2082087;28;20422;-81
2021/03/14 02:56:01;;;;;;;7.80;1.35;;;5.80;84.80;;;;;;2074750;28;20090;-81
2021/03/14 02:57:01;;;;;;;6.05;1.00;;;5.80;84.80;;;;;;2068458;28;20061;-81
2021/03/14 02:58:04;;;;;;;4.20;0.80;;;5.80;84.80;;;;;;2082087;28;20542;-84
2021/03/14 02:59:06;;;;;;;5.82;0.93;;;5.80;84.80;;;;;;2070847;28;20069;-81
2021/03/14 03:00:11;;;;;;;4.80;0.75;;;5.80;84.80;;;;;;2075961;28;20022;-81
2021/03/14 03:01:14;;;;;;;6.93;1.30;;;5.80;84.80;;;;;;2082083;28;20041;-81
2021/03/14 03:02:15;;;;;;;3.70;0.98;;;5.80;84.80;;;;;;2073181;28;20496;-81
2021/03/14 03:03:21;;;;;;;6.50;1.30;;;5.80;84.80;;;;;;2066554;28;20065;-81
2021/03/14 03:04:24;;;;;;;6.85;0.93;;;5.80;84.80;;;;;;2064800;28;20047;-81
2021/03/14 03:05:25;;;;;;;3.35;0.82;;;5.80;84.80;;;;;;2075050;28;20038;-80
2021/03/14 03:06:27;;;;;;;5.47;1.20;;;5.90;84.80;;;;;;2076244;28;20124;-81
2021/03/14 03:07:28;;;;;;;3.95;1.10;;;5.80;84.70;;;;;;2077893;28;20018;-81
2021/03/14 03:08:31;;;;;;;6.70;1.65;;;5.80;84.70;;;;;;2084200;28;20502;-81
2021/03/14 03:09:32;;;;;;;4.70;1.27;;;5.80;84.70;;;;;;2082621;28;20030;-81
2021/03/14 03:10:52;;;;;;;5.45;0.95;;;5.80;84.70;;;;;;2083232;28;20388;-81
2021/03/14 03:11:55;;;;;;;6.43;1.15;;;5.80;84.70;;;;;;2065813;28;20497;-81
2021/03/14 03:12:59;;;;;;;5.03;0.80;;;5.80;84.70;;;;;;2065759;28;20039;-81
2021/03/14 03:14:00;;;;;;;8.10;1.30;;;5.80;84.60;;;;;;2072486;28;20018;-81
2021/03/14 03:15:01;;;;;;;5.85;1.13;;;5.80;84.70;;;;;;2063185;28;20093;-80
2021/03/14 03:16:04;;;;;;;5.72;1.00;;;5.80;84.70;;;;;;2063167;28;20456;-80
2021/03/14 03:17:06;;;;;;;6.90;1.30;;;5.80;84.70;;;;;;2059010;28;20047;-81
2021/03/14 03:18:07;;;;;;;4.75;0.82;;;5.80;84.70;;;;;;2080880;28;20052;-81
2021/03/14 03:19:15;;;;;;;5.22;1.17;;;5.80;84.70;;;;;;2086184;28;20406;-81
2021/03/14 03:20:17;;;;;;;4.57;0.88;;;5.70;84.70;;;;;;2072972;28;20040;-81
2021/03/14 03:21:22;;;;;;;2.72;0.88;;;5.70;84.70;;;;;;2068918;28;20038;-81
2021/03/14 03:22:22;;;;;;;5.75;0.93;;;5.70;84.80;;;;;;2064164;28;20673;-81
2021/03/14 03:23:24;;;;;;;6.85;1.25;;;5.70;84.70;;;;;;2072237;28;20149;-81
2021/03/14 03:24:24;;;;;;;4.00;1.13;;;5.70;84.80;;;;;;2063979;28;20042;-81
2021/03/14 03:25:25;;;;;;;4.75;1.17;;;5.70;84.80;;;;;;2053214;28;20121;-81
2021/03/14 03:26:26;;;;;;;6.05;1.08;;;5.70;84.80;;;;;;2048074;28;20367;-81
2021/03/14 03:27:26;;;;;;;2.95;0.90;;;5.60;84.80;;;;;;2068606;28;20090;-80
2021/03/14 03:28:27;;;;;;;3.05;0.63;;;5.70;84.90;;;;;;2076219;28;20033;-81
2021/03/14 03:29:29;;;;;;;5.57;0.80;;;5.60;84.90;;;;;;2076512;28;20030;-80
2021/03/14 03:30:31;;;;;;;5.90;0.70;;;5.60;84.90;;;;;;2064422;28;20039;-80
2021/03/14 03:31:32;;;;;;;4.72;1.25;;;5.60;84.90;;;;;;2065670;28;20460;-80
2021/03/14 03:32:32;;;;;;;6.18;1.02;;;5.60;84.90;;;;;;2067705;28;20125;-81
2021/03/14 03:33:34;;;;;;;4.30;0.90;;;5.60;84.90;;;;;;2077637;28;20021;-81
2021/03/14 03:34:35;;;;;;;6.30;1.48;;;5.60;84.90;;;;;;2071236;28;20045;-81
2021/03/14 03:35:35;;;;;;;5.57;1.00;;;5.60;84.90;;;;;;2064794;28;20113;-80
2021/03/14 03:36:37;;;;;;;4.63;1.20;;;5.60;85.00;;;;;;2073158;28;20057;-80
2021/03/14 03:37:38;;;;;;;4.15;1.15;;;5.60;84.90;;;;;;2070286;28;20164;-80
2021/03/14 03:38:39;;;;;;;4.97;0.70;;;5.60;84.90;;;;;;2060444;28;20038;-80
2021/03/14 03:39:39;;;;;;;5.57;1.05;;;5.60;85.00;;;;;;2070196;28;20083;-81
2021/03/14 03:40:40;;;;;;;6.38;1.25;;;5.60;85.00;;;;;;2071255;28;20102;-80
2021/03/14 03:42:00;;;;;;;3.50;0.75;;;5.50;84.90;;;;;;2072368;28;20036;-81
2021/03/14 03:43:22;;;;;;;5.65;1.00;;;5.60;85.00;;;;;;2073138;28;20022;-81
2021/03/14 03:44:24;;;;;;;4.70;0.98;;;5.50;84.90;;;;;;2075731;28;20090;-81
2021/03/14 03:45:28;;;;;;;5.60;1.40;;;5.50;84.90;;;;;;2080672;28;20025;-81
2021/03/14 03:46:29;;;;;;;2.67;0.75;;;5.50;84.90;;;;;;2072711;28;20192;-81
2021/03/14 03:47:30;;;;;;;4.80;1.05;;;5.50;84.90;;;;;;2056846;28;20027;-81
2021/03/14 03:48:42;;;;;;;5.57;1.02;;;5.50;84.90;;;;;;2072177;28;20623;-81
2021/03/14 03:49:46;;;;;;;5.43;0.90;;;5.50;84.90;;;;;;2070588;28;20022;-81
2021/03/14 03:50:55;;;;;;;3.50;0.88;;;5.50;84.90;;;;;;2077486;28;21156;-81
2021/03/14 03:51:57;;;;;;;3.35;0.80;;;5.50;85.00;;;;;;2074181;28;20033;-81
2021/03/14 03:52:58;;;;;;;3.40;0.90;;;5.50;85.00;;;;;;2077108;28;20529;-81
2021/03/14 03:54:03;;;;;;;2.97;0.73;;;5.40;85.00;;;;;;2072185;28;20107;-81
2021/03/14 03:55:08;;;;;;;4.15;0.80;;;5.40;85.00;;;;;;2079291;28;20458;-81
2021/03/14 03:56:12;;;;;;;6.20;0.93;;;5.40;85.10;;;;;;2073020;28;20025;-81
2021/03/14 03:57:13;;;;;;;5.47;1.00;;;5.40;85.10;;;;;;2066392;28;20033;-80
2021/03/14 03:58:14;;;;;;;4.45;1.10;;;5.40;85.10;;;;;;2062488;28;20089;-80
2021/03/14 03:59:16;;;;;;;3.80;0.80;;;5.40;85.20;;;;;;2063139;28;20039;-81
2021/03/14 04:00:19;;;;;;;3.67;1.10;;;5.40;85.20;;;;;;2062109;28;20022;-80
2021/03/14 04:01:21;;;;;;;5.15;0.98;;;5.40;85.20;;;;;;2063669;28;20519;-80
2021/03/14 04:02:24;;;;;;;3.67;0.82;;;5.40;85.20;;;;;;2070655;28;20032;-81
2021/03/14 04:03:25;;;;;;;4.78;0.70;;;5.40;85.20;;;;;;2070437;28;20069;-81
2021/03/14 04:04:27;;;;;;;5.25;0.68;;;5.40;85.30;;;;;;2071975;28;20038;-81
2021/03/14 04:05:28;;;;;;;3.03;0.60;;;5.40;85.30;;;;;;2080595;28;20065;-82
2021/03/14 04:06:30;;;;;;;3.33;0.70;;;5.40;85.30;;;;;;2060019;28;20038;-81
2021/03/14 04:07:34;;;;;;;4.40;0.90;;;5.40;85.30;;;;;;2048833;28;20042;-81
2021/03/14 04:08:36;;;;;;;4.07;0.80;;;5.40;85.30;;;;;;2068012;28;20554;-82
2021/03/14 04:09:37;;;;;;;3.80;0.70;;;5.40;85.30;;;;;;2078140;28;20115;-81
2021/03/14 04:10:39;;;;;;;4.47;0.80;;;5.40;85.30;;;;;;2073377;28;20085;-81
2021/03/14 04:11:40;;;;;;;3.13;0.68;;;5.40;85.30;;;;;;2059874;28;20122;-81
2021/03/14 04:12:43;;;;;;;3.17;0.77;;;5.40;85.40;;;;;;2058983;28;20031;-80
2021/03/14 04:13:45;;;;;;;2.67;0.73;;;5.40;85.50;;;;;;2067972;28;20034;-81
2021/03/14 04:14:46;;;;;;;4.57;0.90;;;5.40;85.50;;;;;;2077846;28;20062;-81
2021/03/14 04:15:47;;;;;;;3.78;0.70;;;5.40;86.10;;;;;;2071732;28;20108;-81
2021/03/14 04:16:51;;;;;;;3.92;0.90;;;5.40;85.60;;;;;;2062125;28;20034;-81
2021/03/14 04:17:53;;;;;;;4.22;0.73;;;5.40;85.60;;;;;;2069631;28;20028;-81
2021/03/14 04:18:56;;;;;;;6.03;1.00;;;5.40;85.70;;;;;;2078461;28;20040;-81
2021/03/14 04:20:00;;;;;;;4.05;1.10;;;5.40;86.30;;;;;;2078698;28;20567;-81
2021/03/14 04:21:03;;;;;;;3.97;0.85;;;5.40;85.70;;;;;;2072884;28;20034;-81
2021/03/14 04:22:05;;;;;;;4.97;1.40;;;5.30;85.70;;;;;;2063486;28;20018;-81
2021/03/14 04:23:10;;;;;;;5.03;1.10;;;5.30;85.70;;;;;;2056809;28;20121;-81
2021/03/14 04:24:13;;;;;;;2.80;0.80;;;5.40;85.80;;;;;;2066176;28;20022;-81
2021/03/14 04:25:15;;;;;;;4.70;0.90;;;5.40;85.80;;;;;;2081421;28;20033;-81
2021/03/14 04:26:20;;;;;;;5.18;0.95;;;5.40;85.80;;;;;;2078410;28;20033;-81
2021/03/14 04:27:21;;;;;;;4.53;0.95;;;5.40;85.80;;;;;;2077332;28;20075;-81
2021/03/14 04:28:25;;;;;;;3.83;1.00;;;5.40;85.80;;;;;;2079018;28;20040;-81
2021/03/14 04:29:28;;;;;;;4.15;1.00;;;5.40;85.80;;;;;;2080438;28;20027;-81
2021/03/14 04:30:30;;;;;;;6.07;1.13;;;5.40;85.90;;;;;;2077814;28;20536;-80
2021/03/14 04:31:31;;;;;;;5.25;1.10;;;5.40;85.90;;;;;;2079465;28;20035;-81
2021/03/14 04:32:32;;;;;;;5.70;1.10;;;5.40;85.90;;;;;;2078335;28;20056;-81
2021/03/14 04:33:33;;;;;;;5.72;0.95;;;5.40;85.90;;;;;;2080530;28;20120;-81
2021/03/14 04:34:35;;;;;;;5.50;1.05;;;5.40;85.90;;;;;;2062856;28;20030;-80
2021/03/14 04:35:38;;;;;;;6.85;1.20;;;5.40;86.00;;;;;;2058234;28;20493;-81
2021/03/14 04:36:41;;;;;;;5.43;1.08;;;5.40;86.00;;;;;;2077635;28;20025;-81
2021/03/14 04:37:42;;;;;;;5.18;1.52;;;5.40;86.00;;;;;;2078094;28;20036;-80
2021/03/14 04:38:45;;;;;;;4.88;1.45;;;5.40;86.00;;;;;;2072453;28;20054;-81
2021/03/14 04:39:46;;;;;;;5.97;1.20;;;5.40;86.00;;;;;;2065395;28;20022;-81
2021/03/14 04:40:48;;;;;;;4.43;1.00;;;5.40;86.00;;;;;;2070702;28;20416;-81
2021/03/14 04:41:49;;;;;;;5.95;1.20;;;5.40;86.00;;;;;;2064789;28;20030;-81
2021/03/14 04:42:52;;;;;;;4.20;0.65;;;5.50;86.10;;;;;;2062772;28;20030;-81
2021/03/14 04:43:53;;;;;;;3.90;0.73;;;5.50;86.10;;;;;;2056155;28;20019;-81
2021/03/14 04:44:55;;;;;;;3.33;1.13;;;5.50;86.00;;;;;;2067344;28;20419;-81
2021/03/14 04:45:57;;;;;;;3.85;1.00;;;5.50;86.00;;;;;;2063196;28;20042;-81
2021/03/14 04:46:58;;;;;;;3.88;0.80;;;5.50;86.00;;;;;;2072049;28;20100;-81
2021/03/14 04:47:59;;;;;;;4.80;1.10;;;5.50;86.00;;;;;;2060354;28;20554;-81
2021/03/14 04:49:00;;;;;;;4.65;1.00;;;5.50;86.00;;;;;;2072687;28;20062;-81
2021/03/14 04:50:02;;;;;;;4.65;0.88;;;5.50;86.00;;;;;;2082497;28;20156;-81
2021/03/14 04:51:05;;;;;;;4.80;1.00;;;5.50;86.00;;;;;;2072307;28;20025;-81
2021/03/14 04:52:06;;;;;;;4.70;0.80;;;5.50;86.00;;;;;;2065017;28;20026;-81
2021/03/14 04:53:08;;;;;;;5.03;1.10;;;5.60;86.10;;;;;;2072361;28;20033;-81
2021/03/14 04:54:10;;;;;;;4.75;1.25;;;5.50;86.10;;;;;;2079298;28;20087;-81
2021/03/14 04:55:13;;;;;;;4.60;0.90;;;5.60;86.10;;;;;;2072543;28;20327;-81
2021/03/14 04:56:14;;;;;;;3.08;0.70;;;5.50;86.00;;;;;;2065499;28;20042;-82
2021/03/14 04:57:16;;;;;;;4.18;0.93;;;5.60;86.10;;;;;;2072489;28;20459;-81
2021/03/14 04:58:20;;;;;;;5.10;0.93;;;5.50;86.00;;;;;;2078011;28;20040;-81
2021/03/14 04:59:23;;;;;;;5.50;1.23;;;5.60;86.10;;;;;;2080314;28;20088;-81
2021/03/14 05:00:25;;;;;;;5.03;1.00;;;5.50;86.10;;;;;;2075284;28;20028;-80
2021/03/14 05:01:26;;;;;;;4.65;0.85;;;5.50;86.10;;;;;;2077112;28;20507;-81
2021/03/14 05:02:31;;;;;;;6.40;1.00;;;5.50;86.10;;;;;;2076928;28;20468;-80
2021/03/14 05:03:32;;;;;;;3.42;0.75;;;5.60;86.20;;;;;;2065302;28;20472;-80
2021/03/14 05:04:33;;;;;;;3.40;0.75;;;5.60;86.20;;;;;;2071448;28;20121;-81
2021/03/14 05:05:34;;;;;;;4.50;1.00;;;5.50;86.10;;;;;;2072314;28;20507;-80
2021/03/14 05:06:40;;;;;;;4.10;0.82;;;5.50;86.10;;;;;;2067842;28;20271;-80
2021/03/14 05:07:43;;;;;;;3.95;0.93;;;5.50;86.20;;;;;;2069652;28;20064;-80
2021/03/14 05:08:45;;;;;;;3.88;0.70;;;5.60;86.20;;;;;;2064779;28;20122;-81
2021/03/14 05:09:46;;;;;;;3.97;0.88;;;5.60;86.20;;;;;;2071189;28;20659;-81
2021/03/14 05:10:48;;;;;;;3.15;0.75;;;5.50;86.20;;;;;;2075150;28;20026;-80
2021/03/14 05:11:49;;;;;;;3.58;0.80;;;5.50;86.10;;;;;;2072464;28;20038;-81
2021/03/14 05:12:51;;;;;;;1.80;0.60;;;5.50;86.20;;;;;;2072632;28;20030;-79
2021/03/14 05:13:52;;;;;;;2.88;0.60;;;5.60;86.20;;;;;;2080679;28;20688;-81
2021/03/14 05:14:54;;;;;;;4.47;0.88;;;5.50;86.20;;;;;;2080810;28;20048;-81
2021/03/14 05:15:55;;;;;;;2.65;0.90;;;5.50;86.20;;;;;;2079392;28;20072;-80
2021/03/14 05:16:56;;;;;;;3.40;0.70;;;5.60;86.30;;;;;;2070646;28;20030;-81
2021/03/14 05:17:58;;;;;;;3.75;0.90;;;5.50;86.20;;;;;;2067684;28;20121;-81
2021/03/14 05:19:00;;;;;;;4.80;0.90;;;5.60;86.30;;;;;;2072472;28;20033;-81
2021/03/14 05:20:02;;;;;;;3.70;0.70;;;5.50;86.20;;;;;;2072072;28;20034;-81
2021/03/14 05:21:04;;;;;;;6.22;1.00;;;5.50;86.20;;;;;;2070400;28;20030;-81
2021/03/14 05:22:05;;;;;;;3.72;0.90;;;5.60;86.30;;;;;;2072181;28;20495;-81
2021/03/14 05:23:06;;;;;;;4.10;0.80;;;5.50;86.30;;;;;;2071655;28;20026;-81
2021/03/14 05:24:12;;;;;;;2.63;0.93;;;5.50;86.30;;;;;;2072362;28;20028;-81
2021/03/14 05:25:23;;;;;;;3.58;0.70;;;5.50;86.30;;;;;;2071968;28;20489;-81
2021/03/14 05:26:24;;;;;;;3.95;0.90;;;5.50;86.30;;;;;;2078416;28;20036;-80
2021/03/14 05:27:25;;;;;;;2.95;0.75;;;5.60;86.30;;;;;;2071840;28;20507;-80
2021/03/14 05:28:27;;;;;;;5.97;1.05;;;5.60;86.30;;;;;;2071591;28;20030;-80